Time;durP1;ratioP1;P1;durP2;ratioP2;P2;SDS_P1;SDS_P2;PMS_P1;PMS_P2;Temp;Humidity;BMP_temperature;BMP_pressure;BME280_temperature;BME280_humidity;BME280_pressure;Samples;Min_cycle;Max_cycle;Signal;HPM_P1;HPM_P2
2023/08/21 00:00:44;;;;;;;30.00;8.77;;;16.40;99.90;;;;;;1877591;76;25641;-88
2023/08/21 00:40:10;;;;;;;19.37;7.53;;;16.10;99.90;;;;;;1907962;73;26432;-89
2023/08/21 00:57:33;;;;;;;24.80;8.43;;;16.10;99.90;;;;;;1921166;73;26286;-88
2023/08/21 01:00:23;;;;;;;25.37;8.40;;;16.10;99.90;;;;;;1934340;73;25267;-87
2023/08/21 01:08:56;;;;;;;23.17;9.37;;;16.10;99.90;;;;;;1985972;71;27404;-88
2023/08/21 01:14:32;;;;;;;24.43;9.47;;;16.00;99.90;;;;;;1925469;72;27001;-88
2023/08/21 01:17:22;;;;;;;24.77;10.10;;;15.90;99.90;;;;;;1907248;74;25863;-88
2023/08/21 01:20:12;;;;;;;24.10;9.80;;;16.00;99.90;;;;;;1900697;74;25307;-88
2023/08/21 01:23:06;;;;;;;18.43;9.33;;;15.90;99.90;;;;;;1861994;76;25769;-87
2023/08/21 01:25:54;;;;;;;23.90;10.90;;;16.00;99.90;;;;;;1822595;77;25269;-88
2023/08/21 01:28:43;;;;;;;29.97;10.53;;;16.00;99.90;;;;;;1845571;76;25800;-87
2023/08/21 01:31:36;;;;;;;23.07;10.33;;;16.00;99.90;;;;;;1830876;76;25740;-88
2023/08/21 01:34:25;;;;;;;25.17;10.83;;;16.00;99.90;;;;;;1845175;76;25319;-88
2023/08/21 01:37:15;;;;;;;32.63;11.80;;;16.10;99.90;;;;;;1911203;73;25194;-88
2023/08/21 01:40:04;;;;;;;31.43;11.03;;;16.10;99.90;;;;;;1904513;75;25784;-88
2023/08/21 01:46:09;;;;;;;32.87;12.57;;;16.00;99.90;;;;;;1962661;71;25947;-87
2023/08/21 01:48:58;;;;;;;30.20;12.67;;;16.10;99.90;;;;;;1981166;71;25199;-87
2023/08/21 01:51:46;;;;;;;36.80;12.53;;;16.10;99.90;;;;;;1982870;72;25212;-87
2023/08/21 01:54:37;;;;;;;29.20;11.73;;;16.10;99.90;;;;;;1987957;71;25218;-87
2023/08/21 02:01:17;;;;;;;35.93;11.93;;;16.20;99.90;;;;;;1981404;71;27551;-87
2023/08/21 02:04:12;;;;;;;31.67;11.97;;;16.20;99.90;;;;;;1976768;71;25238;-88
2023/08/21 02:07:01;;;;;;;32.57;12.10;;;16.20;99.90;;;;;;2033921;69;25244;-88
2023/08/21 02:09:50;;;;;;;27.67;11.27;;;16.10;99.90;;;;;;2051929;69;25256;-88
2023/08/21 02:12:38;;;;;;;27.00;11.83;;;16.10;99.90;;;;;;1991913;71;25786;-88
2023/08/21 02:19:08;;;;;;;31.63;11.70;;;16.10;99.90;;;;;;2017040;69;26216;-88
2023/08/21 02:21:57;;;;;;;26.70;11.47;;;16.10;99.90;;;;;;1985073;71;25153;-87
2023/08/21 02:24:45;;;;;;;28.53;10.27;;;16.00;99.90;;;;;;1910343;74;25752;-88
2023/08/21 02:27:37;;;;;;;26.47;10.53;;;16.00;99.90;;;;;;1975792;71;25753;-87
2023/08/21 02:30:28;;;;;;;31.90;9.53;;;16.00;99.90;;;;;;1977606;71;25255;-87
2023/08/21 02:33:16;;;;;;;28.40;9.73;;;16.00;99.90;;;;;;1975604;71;25326;-88
2023/08/21 02:49:44;;;;;;;22.33;8.27;;;15.90;99.90;;;;;;1951304;72;26912;-87
2023/08/21 02:55:49;;;;;;;25.63;8.47;;;15.80;99.90;;;;;;1984748;71;27586;-88
2023/08/21 02:58:37;;;;;;;20.77;8.30;;;15.70;99.90;;;;;;1933757;74;25276;-88
2023/08/21 03:01:26;;;;;;;20.70;7.57;;;15.70;99.90;;;;;;1926684;74;25196;-87
2023/08/21 03:04:15;;;;;;;19.93;8.27;;;15.70;99.90;;;;;;1946191;73;25321;-88
2023/08/21 03:07:04;;;;;;;26.07;7.80;;;15.70;99.90;;;;;;1916229;73;25225;-87
2023/08/21 03:09:53;;;;;;;21.03;8.33;;;15.70;99.90;;;;;;1912317;74;25211;-88
2023/08/21 03:12:41;;;;;;;23.60;7.77;;;15.60;99.90;;;;;;1912626;74;25251;-87
2023/08/21 03:15:30;;;;;;;16.20;6.70;;;15.60;99.90;;;;;;1916057;73;25740;-88
2023/08/21 03:21:03;;;;;;;15.40;6.30;;;15.50;99.90;;;;;;1931628;72;27045;-88
2023/08/21 03:23:48;;;;;;;14.47;5.83;;;15.50;99.90;;;;;;1904827;74;25678;-87
2023/08/21 03:26:37;;;;;;;16.43;6.23;;;15.50;99.90;;;;;;1860815;76;25718;-88
2023/08/21 03:29:26;;;;;;;12.67;5.40;;;15.50;99.90;;;;;;1837712;76;25204;-87
2023/08/21 03:32:15;;;;;;;16.30;5.50;;;15.50;99.90;;;;;;1853514;76;25186;-87
2023/08/21 03:35:04;;;;;;;25.37;5.83;;;15.40;99.90;;;;;;1806738;78;25228;-87
2023/08/21 03:37:52;;;;;;;16.63;5.60;;;15.40;99.90;;;;;;1889834;74;25652;-88
2023/08/21 03:40:42;;;;;;;17.70;5.47;;;15.40;99.90;;;;;;1876596;76;25191;-88
2023/08/21 03:43:31;;;;;;;19.47;5.67;;;15.30;99.90;;;;;;1854186;77;25711;-88
2023/08/21 03:46:20;;;;;;;15.10;5.60;;;15.30;99.90;;;;;;1885887;75;25495;-87
2023/08/21 03:49:08;;;;;;;13.97;5.80;;;15.30;99.90;;;;;;1831626;78;25790;-88
2023/08/21 04:20:13;;;;;;;12.67;4.77;;;15.50;99.90;;;;;;1903959;74;26223;-88
2023/08/21 04:26:02;;;;;;;10.50;4.33;;;15.70;99.90;;;;;;1940601;72;26955;-88
2023/08/21 04:28:52;;;;;;;12.67;4.10;;;15.70;99.90;;;;;;1927755;72;25237;-88
2023/08/21 04:31:40;;;;;;;10.33;4.10;;;15.70;99.90;;;;;;1936836;72;25286;-88
2023/08/21 04:34:29;;;;;;;9.20;3.70;;;15.90;99.90;;;;;;1939845;73;25827;-88
2023/08/21 04:37:18;;;;;;;13.63;3.77;;;16.00;99.90;;;;;;1949678;72;25711;-88
2023/08/21 04:40:08;;;;;;;11.77;3.20;;;16.00;99.90;;;;;;1928880;72;25276;-87
2023/08/21 04:42:57;;;;;;;13.33;3.30;;;16.10;99.90;;;;;;1870115;75;25792;-87
2023/08/21 04:48:43;;;;;;;13.40;3.40;;;16.40;99.90;;;;;;1942352;72;27007;-88
2023/08/21 04:51:32;;;;;;;10.17;3.10;;;16.40;99.90;;;;;;1929099;73;25341;-88
2023/08/21 04:54:21;;;;;;;12.00;2.90;;;16.40;99.90;;;;;;1916742;73;25269;-88
2023/08/21 04:57:10;;;;;;;18.10;3.70;;;16.60;99.90;;;;;;1918615;73;25351;-89
2023/08/21 05:13:40;;;;;;;12.80;3.10;;;16.40;99.90;;;;;;1935375;72;27335;-88
2023/08/21 05:16:29;;;;;;;12.90;3.60;;;16.10;99.90;;;;;;1938013;73;25696;-87
2023/08/21 05:37:07;;;;;;;7.57;2.60;;;16.60;99.90;;;;;;1965054;72;26842;-87
2023/08/21 05:39:57;;;;;;;9.80;2.80;;;16.60;99.90;;;;;;1931193;72;25320;-88
2023/08/21 05:55:55;;;;;;;8.27;2.87;;;16.30;99.90;;;;;;1876091;74;27394;-87
2023/08/21 06:01:22;;;;;;;11.73;3.13;;;16.60;99.90;;;;;;1942168;72;27422;-88
2023/08/21 06:04:11;;;;;;;12.13;2.90;;;16.90;99.90;;;;;;1929773;73;25198;-88
2023/08/21 06:22:09;;;;;;;12.93;2.60;;;17.10;99.90;;;;;;1894785;74;26346;-88
2023/08/21 06:38:56;;;;;;;9.53;2.30;;;17.70;99.90;;;;;;1907604;73;26327;-90
2023/08/21 06:45:42;;;;;;;10.97;3.03;;;17.10;99.90;;;;;;1995183;71;29616;-88
2023/08/21 06:48:31;;;;;;;10.80;2.50;;;16.90;99.90;;;;;;1957819;72;25223;-88
2023/08/21 06:51:20;;;;;;;10.87;3.33;;;16.90;99.90;;;;;;2044531;69;25654;-88
2023/08/21 06:54:08;;;;;;;8.20;2.60;;;16.90;99.90;;;;;;2054559;69;25231;-88
2023/08/21 06:56:56;;;;;;;16.03;2.90;;;16.90;99.90;;;;;;2032720;69;25224;-88
2023/08/21 06:59:45;;;;;;;9.30;2.60;;;16.90;99.90;;;;;;2050848;69;25727;-88
2023/08/21 07:02:35;;;;;;;12.10;2.60;;;17.00;99.90;;;;;;2033622;69;25258;-88
2023/08/21 07:05:24;;;;;;;7.20;2.53;;;17.20;99.90;;;;;;2055812;69;25179;-88
2023/08/21 07:08:13;;;;;;;9.07;2.50;;;17.10;99.90;;;;;;2035976;69;25167;-88
2023/08/21 07:14:07;;;;;;;12.47;2.60;;;17.20;99.90;;;;;;1906226;74;27055;-88
2023/08/21 07:16:57;;;;;;;9.87;2.60;;;17.10;99.90;;;;;;1895225;75;25350;-88
2023/08/21 07:19:46;;;;;;;8.13;2.63;;;17.10;99.90;;;;;;1900518;75;25297;-88
2023/08/21 07:37:49;;;;;;;8.50;2.30;;;17.20;99.90;;;;;;1914224;73;26987;-88
2023/08/21 07:44:02;;;;;;;8.30;2.10;;;17.90;99.90;;;;;;1980228;71;27095;-88
2023/08/21 08:00:20;;;;;;;13.17;2.20;;;17.90;99.90;;;;;;1910393;72;27068;-89
2023/08/21 08:05:53;;;;;;;6.87;2.37;;;17.50;99.90;;;;;;1953401;72;26921;-88
2023/08/21 08:09:01;;;;;;;8.60;2.23;;;17.50;99.90;;;;;;1926097;72;25211;-88
2023/08/21 08:11:50;;;;;;;13.20;2.60;;;17.50;99.90;;;;;;1935907;73;25254;-87
2023/08/21 08:14:40;;;;;;;14.83;2.40;;;17.60;99.90;;;;;;1924644;73;25244;-88
2023/08/21 08:17:30;;;;;;;6.80;2.00;;;17.70;99.90;;;;;;1914688;72;25206;-88
2023/08/21 08:34:35;;;;;;;7.83;2.43;;;17.70;99.90;;;;;;1917414;73;26959;-88
2023/08/21 08:40:11;;;;;;;7.53;2.40;;;18.10;99.90;;;;;;1886144;74;27098;-87
2023/08/21 08:45:57;;;;;;;9.00;2.50;;;18.40;99.90;;;;;;1949716;72;27080;-88
2023/08/21 08:48:49;;;;;;;14.67;2.70;;;18.50;99.90;;;;;;1955639;72;25233;-87
2023/08/21 08:51:41;;;;;;;12.70;2.83;;;18.40;99.90;;;;;;1945322;72;25182;-87
2023/08/21 08:54:30;;;;;;;9.10;2.20;;;18.40;99.90;;;;;;1961846;72;25191;-88
2023/08/21 08:57:20;;;;;;;9.27;2.30;;;18.30;99.90;;;;;;1953811;72;25580;-87
2023/08/21 09:00:17;;;;;;;13.30;2.47;;;18.10;99.90;;;;;;1957636;72;25244;-88
2023/08/21 09:03:08;;;;;;;7.80;2.20;;;18.30;99.90;;;;;;1903556;74;25750;-88
2023/08/21 09:06:00;;;;;;;9.97;2.73;;;18.30;99.90;;;;;;1881296;74;25280;-88
2023/08/21 09:13:26;;;;;;;12.73;2.37;;;18.20;99.90;;;;;;1950606;71;26312;-87
2023/08/21 09:20:05;;;;;;;10.73;2.10;;;18.40;99.90;;;;;;1952082;72;28716;-88
2023/08/21 09:25:41;;;;;;;13.90;2.87;;;18.70;99.90;;;;;;1929373;72;27064;-88
2023/08/21 09:28:30;;;;;;;9.00;2.43;;;18.90;99.90;;;;;;1907762;74;26605;-88
2023/08/21 09:45:04;;;;;;;12.23;2.40;;;19.30;99.90;;;;;;1918456;73;26283;-87
2023/08/21 09:50:40;;;;;;;14.70;2.30;;;19.80;99.90;;;;;;2001855;71;27518;-88
2023/08/21 09:53:28;;;;;;;9.10;2.10;;;20.00;99.90;;;;;;1962536;72;25187;-88
2023/08/21 09:56:18;;;;;;;8.97;2.00;;;20.10;99.90;;;;;;1980152;71;25268;-88
2023/08/21 09:59:07;;;;;;;11.47;2.17;;;20.00;99.90;;;;;;1983327;71;25256;-88
2023/08/21 10:01:59;;;;;;;10.00;2.10;;;20.10;99.90;;;;;;1961064;71;25223;-86
2023/08/21 10:07:30;;;;;;;7.73;2.00;;;20.30;99.90;;;;;;1964848;70;27442;-88
2023/08/21 10:10:19;;;;;;;5.70;1.83;;;20.30;99.90;;;;;;1932610;72;25337;-88
2023/08/21 10:13:09;;;;;;;9.40;2.13;;;20.30;99.90;;;;;;1937428;72;25239;-88
2023/08/21 10:15:58;;;;;;;8.17;1.83;;;20.30;99.90;;;;;;1946883;72;25727;-88
2023/08/21 10:18:48;;;;;;;11.70;2.27;;;20.40;99.90;;;;;;1947428;72;25232;-88
2023/08/21 10:21:39;;;;;;;14.37;2.17;;;20.50;99.90;;;;;;1931416;73;25259;-88
2023/08/21 10:24:36;;;;;;;7.33;2.13;;;20.90;99.90;;;;;;1928542;73;25178;-88
2023/08/21 10:27:33;;;;;;;12.70;2.30;;;20.70;99.90;;;;;;1930067;72;25354;-88
2023/08/21 10:30:27;;;;;;;7.23;1.80;;;20.80;99.90;;;;;;1899166;75;25703;-88
2023/08/21 10:33:15;;;;;;;11.53;2.60;;;20.90;99.90;;;;;;1912403;73;25253;-88
2023/08/21 10:36:04;;;;;;;6.57;1.90;;;20.50;99.90;;;;;;1906788;75;25153;-88
2023/08/21 10:39:04;;;;;;;8.87;2.30;;;20.50;99.90;;;;;;1910032;73;25757;-88
2023/08/21 10:42:16;;;;;;;11.13;2.03;;;20.40;99.90;;;;;;1871137;74;25349;-88
2023/08/21 10:45:15;;;;;;;6.33;1.77;;;20.50;99.90;;;;;;1930133;73;25158;-89
2023/08/21 10:51:31;;;;;;;10.00;2.00;;;20.60;99.90;;;;;;1913265;74;28941;-88
2023/08/21 10:57:05;;;;;;;8.27;1.60;;;21.10;99.90;;;;;;1936300;72;26936;-88
2023/08/21 10:59:57;;;;;;;6.07;1.80;;;21.20;99.90;;;;;;1901242;74;25227;-88
2023/08/21 11:02:49;;;;;;;7.60;2.20;;;20.90;99.90;;;;;;1857741;76;25265;-87
2023/08/21 11:08:48;;;;;;;8.57;2.27;;;20.40;99.90;;;;;;1944107;72;27733;-87
2023/08/21 11:11:39;;;;;;;10.67;1.90;;;20.50;99.90;;;;;;1931345;73;25244;-87
2023/08/21 11:14:29;;;;;;;13.10;2.20;;;20.60;99.90;;;;;;1918977;73;25266;-87
2023/08/21 11:20:12;;;;;;;6.40;1.70;;;21.10;99.90;;;;;;1959162;72;26690;-87
2023/08/21 11:23:02;;;;;;;5.93;1.70;;;21.50;99.90;;;;;;1892289;72;26366;-88
2023/08/21 11:25:55;;;;;;;7.73;1.63;;;21.20;99.90;;;;;;1949685;72;25322;-87
2023/08/21 11:31:24;;;;;;;6.87;1.60;;;20.80;99.90;;;;;;1929956;72;27689;-87
2023/08/21 11:34:16;;;;;;;7.33;2.20;;;21.10;99.90;;;;;;1915698;74;25223;-89
2023/08/21 11:37:06;;;;;;;7.20;1.93;;;21.30;99.90;;;;;;1888989;75;26478;-89
2023/08/21 11:39:56;;;;;;;5.77;1.70;;;21.50;99.90;;;;;;1884489;75;25534;-89
2023/08/21 11:42:46;;;;;;;8.07;1.80;;;21.90;99.90;;;;;;1887923;75;25766;-87
2023/08/21 11:45:38;;;;;;;8.77;2.00;;;21.90;99.90;;;;;;1893551;75;25736;-89
2023/08/21 11:48:27;;;;;;;4.13;1.60;;;22.20;99.90;;;;;;1886533;75;25792;-88
2023/08/21 11:54:36;;;;;;;4.97;1.50;;;22.10;99.90;;;;;;1980628;71;26379;-87
2023/08/21 11:57:30;;;;;;;7.47;1.80;;;22.10;99.90;;;;;;1955878;72;25158;-87
2023/08/21 12:00:24;;;;;;;5.73;1.83;;;22.20;99.90;;;;;;2063158;69;25251;-87
2023/08/21 12:03:14;;;;;;;5.23;1.70;;;22.20;99.90;;;;;;2037168;69;25260;-87
2023/08/21 12:06:06;;;;;;;9.20;1.80;;;22.00;99.90;;;;;;2041356;69;25167;-87
2023/08/21 12:11:39;;;;;;;3.53;1.17;;;22.20;99.90;;;;;;1937871;72;27079;-88
2023/08/21 12:14:30;;;;;;;9.40;1.50;;;22.00;99.90;;;;;;1903239;75;25309;-88
2023/08/21 12:17:21;;;;;;;5.40;1.27;;;22.30;99.90;;;;;;1907219;75;25667;-88
2023/08/21 12:20:13;;;;;;;5.37;1.40;;;22.40;99.90;;;;;;1897093;75;25349;-87
2023/08/21 12:25:51;;;;;;;9.07;1.60;;;21.70;99.90;;;;;;1969619;72;26922;-87
2023/08/21 12:28:42;;;;;;;6.57;1.67;;;21.50;99.90;;;;;;1940061;72;25174;-88
2023/08/21 12:31:33;;;;;;;10.30;1.80;;;21.60;99.90;;;;;;1941822;73;25287;-88
2023/08/21 12:34:25;;;;;;;3.50;1.30;;;21.90;99.90;;;;;;1917115;73;25257;-88
2023/08/21 12:37:14;;;;;;;3.40;1.17;;;22.10;99.90;;;;;;1881061;73;25233;-88
2023/08/21 12:40:06;;;;;;;4.13;1.30;;;22.20;99.90;;;;;;1843319;76;25294;-87
2023/08/21 12:42:55;;;;;;;7.10;1.67;;;22.40;99.90;;;;;;1953361;72;25305;-87
2023/08/21 12:48:36;;;;;;;4.43;1.27;;;22.30;99.90;;;;;;1938018;72;27528;-87
2023/08/21 12:54:20;;;;;;;2.23;1.30;;;22.20;99.90;;;;;;1935293;73;27050;-88
2023/08/21 12:57:11;;;;;;;5.90;1.30;;;22.30;99.90;;;;;;1928398;73;25177;-88
2023/08/21 13:00:00;;;;;;;5.00;1.30;;;22.20;99.90;;;;;;1926625;73;25660;-87
2023/08/21 13:02:52;;;;;;;3.53;1.13;;;22.10;99.90;;;;;;1925155;73;25220;-87
2023/08/21 13:08:29;;;;;;;1.47;1.20;;;22.20;99.90;;;;;;1959692;72;27522;-87
2023/08/21 13:11:21;;;;;;;5.03;1.20;;;22.20;99.90;;;;;;1917986;73;25213;-87
2023/08/21 13:14:11;;;;;;;5.37;1.40;;;22.30;99.90;;;;;;1913768;73;25218;-87
2023/08/21 13:17:21;;;;;;;3.43;1.10;;;22.10;99.90;;;;;;1887817;73;25329;-87
2023/08/21 13:34:26;;;;;;;6.27;1.33;;;22.10;99.90;;;;;;1914781;74;27655;-87
2023/08/21 13:42:13;;;;;;;4.87;1.30;;;22.20;99.90;;;;;;1961542;71;27152;-86
2023/08/21 13:45:05;;;;;;;7.40;1.53;;;21.90;99.90;;;;;;1901770;74;25191;-89
2023/08/21 13:48:07;;;;;;;2.40;1.10;;;21.90;99.90;;;;;;1878228;75;25806;-88
2023/08/21 13:50:56;;;;;;;5.60;1.37;;;22.00;99.90;;;;;;1905407;74;25741;-87
2023/08/21 13:53:44;;;;;;;5.17;1.30;;;22.10;99.90;;;;;;1908402;74;25563;-87
2023/08/21 13:56:34;;;;;;;2.57;1.20;;;22.00;99.90;;;;;;1905510;74;25287;-86
2023/08/21 14:02:09;;;;;;;4.33;1.20;;;22.10;99.90;;;;;;1928451;72;26652;-87
2023/08/21 14:08:17;;;;;;;4.60;1.17;;;21.80;99.90;;;;;;1943720;72;26847;-88
2023/08/21 14:14:21;;;;;;;4.50;1.37;;;21.80;99.90;;;;;;1984099;71;27062;-86
2023/08/21 14:17:10;;;;;;;3.97;1.30;;;22.20;99.90;;;;;;1924318;73;25209;-86
2023/08/21 14:20:00;;;;;;;5.37;1.13;;;22.30;99.90;;;;;;2018549;70;25139;-86
2023/08/21 14:22:49;;;;;;;3.37;1.40;;;22.10;99.90;;;;;;2017523;70;25608;-86
2023/08/21 14:25:40;;;;;;;3.10;1.13;;;22.20;99.90;;;;;;1994744;70;25612;-86
2023/08/21 14:28:30;;;;;;;6.10;1.27;;;22.20;99.90;;;;;;2021397;70;25231;-89
2023/08/21 14:31:40;;;;;;;1.93;1.10;;;22.30;99.90;;;;;;1989942;70;25228;-89
2023/08/21 14:34:35;;;;;;;3.23;1.20;;;22.20;99.90;;;;;;2025395;70;25210;-86
2023/08/21 14:37:28;;;;;;;3.17;1.20;;;22.30;99.90;;;;;;1997079;70;25245;-86
2023/08/21 14:40:20;;;;;;;2.20;1.27;;;22.20;99.90;;;;;;2015006;70;25712;-86
2023/08/21 14:43:15;;;;;;;2.43;1.10;;;22.20;99.90;;;;;;1990961;70;25268;-86
2023/08/21 14:46:10;;;;;;;5.57;1.50;;;22.10;99.90;;;;;;1939316;73;25846;-86
2023/08/21 14:49:02;;;;;;;3.37;1.37;;;22.00;99.90;;;;;;1985344;72;25306;-87
2023/08/21 14:51:52;;;;;;;4.47;1.20;;;21.90;99.90;;;;;;1938313;73;25779;-86
2023/08/21 14:57:56;;;;;;;2.90;1.20;;;22.10;99.90;;;;;;1968919;72;27785;-87
2023/08/21 15:00:48;;;;;;;4.90;1.10;;;22.00;99.90;;;;;;1931983;73;25211;-87
2023/08/21 15:03:41;;;;;;;2.77;1.10;;;21.90;99.90;;;;;;2022305;69;25241;-87
2023/08/21 15:09:21;;;;;;;4.93;1.27;;;21.80;99.90;;;;;;1973020;72;27662;-87
2023/08/21 15:28:25;;;;;;;3.77;1.27;;;21.40;99.90;;;;;;1924026;72;26926;-87
2023/08/21 15:31:16;;;;;;;3.00;1.33;;;21.30;99.90;;;;;;1906715;74;25181;-87
2023/08/21 15:34:06;;;;;;;2.20;1.37;;;21.40;99.90;;;;;;1904701;73;25279;-87
2023/08/21 15:37:14;;;;;;;2.57;1.20;;;21.60;99.90;;;;;;1910382;74;25330;-88
2023/08/21 15:40:03;;;;;;;5.00;1.20;;;21.60;99.90;;;;;;1901592;74;25175;-87
2023/08/21 15:42:52;;;;;;;3.90;1.50;;;21.40;99.90;;;;;;1842896;76;25313;-87
2023/08/21 15:48:36;;;;;;;3.03;1.30;;;21.40;99.90;;;;;;1940808;72;27027;-88
2023/08/21 15:51:26;;;;;;;3.97;1.33;;;21.40;99.90;;;;;;1920431;73;25249;-88
2023/08/21 15:57:11;;;;;;;2.60;1.30;;;21.40;99.90;;;;;;1952503;72;26963;-88
2023/08/21 16:00:03;;;;;;;1.60;1.13;;;21.40;99.90;;;;;;1938373;73;25184;-88
2023/08/21 16:02:53;;;;;;;4.13;1.60;;;21.30;99.90;;;;;;1890153;75;25278;-88
2023/08/21 16:08:33;;;;;;;5.17;1.43;;;21.30;99.90;;;;;;1889281;75;28523;-88
2023/08/21 16:14:20;;;;;;;4.97;1.50;;;21.20;99.90;;;;;;1953426;72;27177;-87
2023/08/21 16:30:54;;;;;;;6.03;1.60;;;21.30;99.90;;;;;;1999393;71;26931;-87
2023/08/21 16:37:58;;;;;;;2.47;1.47;;;20.80;99.90;;;;;;1954837;72;27485;-87
2023/08/21 16:40:49;;;;;;;8.13;1.80;;;20.80;99.90;;;;;;1977528;72;25270;-86
2023/08/21 16:43:38;;;;;;;6.90;2.13;;;20.70;99.90;;;;;;1955439;73;25247;-87
2023/08/21 16:46:27;;;;;;;5.70;1.70;;;20.70;99.90;;;;;;1958077;72;25262;-87
2023/08/21 16:49:18;;;;;;;7.70;1.93;;;20.70;99.90;;;;;;1913464;73;25299;-87
2023/08/21 16:52:08;;;;;;;6.27;1.60;;;20.60;99.90;;;;;;1877683;76;25636;-87
2023/08/21 16:54:57;;;;;;;6.07;1.67;;;20.50;99.90;;;;;;1877626;75;25207;-86
2023/08/21 16:57:47;;;;;;;6.67;1.80;;;20.40;99.90;;;;;;1869446;76;25746;-87
2023/08/21 17:00:37;;;;;;;8.00;1.77;;;20.40;99.90;;;;;;1873129;76;25263;-87
2023/08/21 17:03:25;;;;;;;6.70;1.80;;;20.40;99.90;;;;;;1874861;75;25264;-87
2023/08/21 17:06:15;;;;;;;6.90;2.37;;;20.30;99.90;;;;;;1872503;76;25793;-87
2023/08/21 17:09:05;;;;;;;6.10;3.23;;;20.40;99.90;;;;;;1869022;76;25237;-86
2023/08/21 17:14:33;;;;;;;5.80;1.70;;;20.20;99.90;;;;;;1923837;72;26989;-87
2023/08/21 17:17:22;;;;;;;6.60;1.87;;;20.20;99.90;;;;;;1866160;76;25320;-87
2023/08/21 17:20:12;;;;;;;5.87;2.00;;;20.10;99.90;;;;;;1822599;76;25309;-87
2023/08/21 17:23:01;;;;;;;8.60;1.90;;;20.00;99.90;;;;;;1916745;74;25755;-87
2023/08/21 17:25:50;;;;;;;8.70;1.80;;;19.90;99.90;;;;;;1901238;74;25787;-87
2023/08/21 17:28:40;;;;;;;8.23;2.00;;;19.80;99.90;;;;;;1910994;74;25222;-87
2023/08/21 17:31:29;;;;;;;10.77;2.23;;;19.80;99.90;;;;;;1865609;76;25373;-87
2023/08/21 17:34:18;;;;;;;8.37;2.07;;;19.60;99.90;;;;;;1831501;76;25741;-87
2023/08/21 17:37:08;;;;;;;7.93;2.43;;;19.60;99.90;;;;;;1858560;76;25236;-87
2023/08/21 17:40:03;;;;;;;8.80;2.50;;;19.50;99.90;;;;;;1813446;77;25298;-87
2023/08/21 17:42:52;;;;;;;11.07;2.57;;;19.40;99.90;;;;;;1829865;77;25355;-87
2023/08/21 17:45:41;;;;;;;9.43;2.50;;;19.40;99.90;;;;;;1834124;77;25680;-87
2023/08/21 17:48:30;;;;;;;9.93;2.60;;;19.30;99.90;;;;;;1833272;77;25675;-87
2023/08/21 17:51:19;;;;;;;15.20;2.67;;;19.20;99.90;;;;;;1827812;77;25259;-87
2023/08/21 17:54:09;;;;;;;11.63;2.43;;;19.20;99.90;;;;;;1857641;76;25807;-87
2023/08/21 17:56:59;;;;;;;10.07;2.30;;;19.10;99.90;;;;;;1853967;76;25250;-87
2023/08/21 18:02:34;;;;;;;8.30;2.40;;;18.90;99.90;;;;;;1937189;72;27094;-87
2023/08/21 18:05:23;;;;;;;11.77;2.30;;;18.80;99.90;;;;;;1878648;75;25233;-87
2023/08/21 18:08:12;;;;;;;15.30;2.43;;;18.80;99.90;;;;;;1823328;77;25244;-87
2023/08/21 18:11:03;;;;;;;7.47;2.50;;;18.70;99.90;;;;;;1848986;76;25713;-87
2023/08/21 18:13:52;;;;;;;10.63;2.73;;;18.60;99.90;;;;;;1849614;76;25696;-87
2023/08/21 18:20:04;;;;;;;16.57;2.70;;;18.50;99.90;;;;;;1979423;70;26602;-87
2023/08/21 18:22:53;;;;;;;13.03;3.33;;;18.40;99.90;;;;;;1974769;72;25172;-87
2023/08/21 18:25:42;;;;;;;10.37;2.50;;;18.40;99.90;;;;;;2059816;69;25270;-87
2023/08/21 18:28:32;;;;;;;12.37;2.93;;;18.30;99.90;;;;;;2033854;68;25896;-87
2023/08/21 18:31:21;;;;;;;10.47;2.50;;;18.30;99.90;;;;;;2053443;69;25226;-87
2023/08/21 18:34:10;;;;;;;9.60;2.70;;;18.20;99.90;;;;;;2036421;69;25273;-87
2023/08/21 18:37:00;;;;;;;10.27;2.57;;;18.20;99.90;;;;;;2047680;69;25208;-87
2023/08/21 18:39:48;;;;;;;15.93;3.10;;;18.20;99.90;;;;;;2042449;68;25635;-87
2023/08/21 18:45:21;;;;;;;13.40;3.10;;;18.00;99.90;;;;;;1949316;71;27009;-87
2023/08/21 18:48:11;;;;;;;8.63;2.70;;;18.00;99.90;;;;;;1923181;72;25316;-87
2023/08/21 18:50:59;;;;;;;14.10;2.93;;;17.90;99.90;;;;;;1924105;72;25266;-87
2023/08/21 18:53:48;;;;;;;16.67;3.63;;;17.90;99.90;;;;;;1937441;72;25231;-87
2023/08/21 19:09:45;;;;;;;12.13;3.27;;;17.90;99.90;;;;;;1900175;74;27573;-86
2023/08/21 19:15:13;;;;;;;15.63;3.63;;;17.60;99.90;;;;;;1944751;72;27523;-87
2023/08/21 19:35:05;;;;;;;12.17;2.90;;;17.50;99.90;;;;;;1940581;72;27023;-86
2023/08/21 19:37:54;;;;;;;12.97;3.00;;;17.50;99.90;;;;;;1925971;73;25684;-88
2023/08/21 19:40:46;;;;;;;12.73;3.13;;;17.50;99.90;;;;;;1942715;73;25158;-87
2023/08/21 19:43:33;;;;;;;11.97;3.80;;;17.40;99.90;;;;;;1905819;75;25271;-87
2023/08/21 19:46:22;;;;;;;11.50;3.50;;;17.40;99.90;;;;;;1890206;75;25907;-87
2023/08/21 19:49:13;;;;;;;12.53;3.33;;;17.30;99.90;;;;;;1910928;74;25774;-87
2023/08/21 19:52:01;;;;;;;18.47;3.93;;;17.30;99.90;;;;;;1910074;74;25225;-87
2023/08/21 19:57:30;;;;;;;16.33;3.90;;;17.20;99.90;;;;;;1944618;72;27115;-87
2023/08/21 20:00:19;;;;;;;20.50;3.90;;;17.20;99.90;;;;;;1894096;73;25219;-87
2023/08/21 20:08:08;;;;;;;16.20;3.60;;;17.10;99.90;;;;;;1934541;72;26402;-86
2023/08/21 20:10:57;;;;;;;16.80;4.00;;;17.10;99.90;;;;;;1896154;75;25185;-87
2023/08/21 20:13:47;;;;;;;20.77;4.40;;;17.10;99.90;;;;;;1886468;75;25281;-87
2023/08/21 20:16:36;;;;;;;13.33;3.63;;;17.10;99.90;;;;;;1907420;75;25773;-87
2023/08/21 20:19:25;;;;;;;13.10;3.83;;;17.00;99.90;;;;;;1893849;73;25223;-87
2023/08/21 20:22:14;;;;;;;14.80;3.70;;;17.00;99.90;;;;;;1890074;75;25231;-87
2023/08/21 20:25:03;;;;;;;16.50;3.40;;;16.90;99.90;;;;;;1898127;75;25199;-87
2023/08/21 20:27:51;;;;;;;20.80;3.80;;;16.90;99.90;;;;;;1894120;75;25283;-87
2023/08/21 20:30:41;;;;;;;14.57;4.00;;;16.90;99.90;;;;;;1890737;75;25863;-87
2023/08/21 20:36:22;;;;;;;19.27;4.40;;;16.80;99.90;;;;;;2022559;69;27311;-87
2023/08/21 20:39:11;;;;;;;19.17;3.83;;;16.80;99.90;;;;;;2011841;69;25371;-87
2023/08/21 20:45:46;;;;;;;12.70;3.90;;;16.80;99.90;;;;;;1978893;71;26841;-86
2023/08/21 20:48:35;;;;;;;19.83;4.13;;;16.80;99.90;;;;;;1957244;72;25296;-86
2023/08/21 20:51:24;;;;;;;16.40;3.77;;;16.70;99.90;;;;;;2036913;69;25254;-86
2023/08/21 20:57:06;;;;;;;15.87;4.17;;;16.80;99.90;;;;;;1967761;72;27567;-87
2023/08/21 20:59:55;;;;;;;23.10;4.07;;;16.80;99.90;;;;;;1958058;72;25229;-87
2023/08/21 21:02:44;;;;;;;17.20;4.63;;;16.70;99.90;;;;;;1950533;72;25202;-86
2023/08/21 21:05:34;;;;;;;21.07;4.27;;;16.70;99.90;;;;;;1957855;72;25263;-87
2023/08/21 21:08:23;;;;;;;16.87;3.73;;;16.70;99.90;;;;;;1951265;72;25207;-87
2023/08/21 21:11:11;;;;;;;24.07;4.30;;;16.70;99.90;;;;;;1950381;72;25301;-87
2023/08/21 21:18:22;;;;;;;20.03;4.00;;;16.60;99.90;;;;;;1992407;71;26276;-87
2023/08/21 21:21:11;;;;;;;18.83;4.20;;;16.60;99.90;;;;;;1977617;72;25199;-87
2023/08/21 21:24:00;;;;;;;15.63;3.90;;;16.60;99.90;;;;;;2029262;69;25659;-87
2023/08/21 21:26:52;;;;;;;15.43;4.10;;;16.60;99.90;;;;;;2038760;69;25659;-87
2023/08/21 21:29:41;;;;;;;33.37;4.53;;;16.50;99.90;;;;;;2061284;69;25254;-87
2023/08/21 21:32:30;;;;;;;20.77;4.23;;;16.50;99.90;;;;;;2056328;69;25634;-87
2023/08/21 21:35:19;;;;;;;22.77;4.40;;;16.40;99.90;;;;;;2062382;69;25626;-87
2023/08/21 21:38:08;;;;;;;14.87;4.27;;;16.50;99.90;;;;;;2052825;69;25674;-87
2023/08/21 21:40:58;;;;;;;18.53;3.73;;;16.50;99.90;;;;;;2039173;69;25120;-87
2023/08/21 21:43:47;;;;;;;20.17;4.63;;;16.40;99.90;;;;;;2052926;69;25163;-87
2023/08/21 21:46:36;;;;;;;21.83;4.50;;;16.40;99.90;;;;;;2054615;69;25202;-87
2023/08/21 21:49:25;;;;;;;25.63;4.03;;;16.30;99.90;;;;;;2040812;69;25165;-87
2023/08/21 21:52:13;;;;;;;17.03;4.10;;;16.20;99.90;;;;;;2035902;69;25127;-86
2023/08/21 21:55:02;;;;;;;15.70;4.07;;;16.20;99.90;;;;;;2051638;69;25685;-87
2023/08/21 22:00:31;;;;;;;26.07;4.73;;;16.20;99.90;;;;;;1957991;71;27422;-86
2023/08/21 22:03:20;;;;;;;15.33;3.80;;;16.20;99.90;;;;;;1895682;73;26242;-86
2023/08/21 22:06:08;;;;;;;13.77;4.13;;;16.20;99.90;;;;;;1898294;73;25214;-86
2023/08/21 22:08:57;;;;;;;24.53;4.07;;;16.20;99.90;;;;;;1890196;75;25230;-86
2023/08/21 22:11:46;;;;;;;19.57;4.67;;;16.10;99.90;;;;;;1900855;75;25161;-86
2023/08/21 22:14:35;;;;;;;25.67;5.27;;;16.10;99.90;;;;;;1895657;74;25728;-87
2023/08/21 22:20:08;;;;;;;28.17;9.50;;;16.00;99.90;;;;;;1923937;72;27088;-86
2023/08/21 22:22:56;;;;;;;25.20;7.57;;;16.00;99.90;;;;;;1873520;76;25322;-87
2023/08/21 22:25:46;;;;;;;19.03;4.40;;;16.10;99.90;;;;;;1824152;77;25869;-87
2023/08/21 22:28:35;;;;;;;19.30;4.33;;;16.10;99.90;;;;;;1833623;76;25228;-87
2023/08/21 22:31:23;;;;;;;34.77;4.97;;;16.10;99.90;;;;;;1874895;76;25311;-87
2023/08/21 22:34:12;;;;;;;23.97;4.40;;;16.10;99.90;;;;;;1897383;74;25150;-87